Etusivu
METAR-TAF:

METAR-TAF

Lentoasemat :

El Borma, Tunisia

Leveyspiiri: 31-41N, Pituuspiiri: 009-10E, korkeus merenpinnasta: 258 m

Tämänhetkinen sää

Tämä raportti tehtiin 48 minuuttia sitten, kello 12.00 UTC
Tuuli 10 kn etelästä/kaakosta, vaihdellen idän/kaakon ja etelän välillä
Lämpötila 45°C
Kosteus 4%
Ilmanpaine 1016 hPa
Näkyvyys 10 km tai enemmän
ei pilviä alle 1500 m:ssä eikä cumulonimbus-pilviä

METAR: DTTR 251200Z 15010KT 120V180 CAVOK 45/M06 Q1016 NOSIG:RMK:SIROC CO

Aika: 13:48 (12:48 UTC)

Sääennuste

Tämä raportti tehtiin 48 minuuttia sitten, kello 12.00 UTC
Ennuste voimassa 25. päivästä klo 13 UTC - 25. päivään klo 22 UTC
Tuuli 10 kn etelästä/kaakosta
Näkyvyys 10 km tai enemmän
ei pilviä alle 1500 m:ssä eikä cumulonimbus-pilviä

TAF: DTTR 251200Z 2513/2522 16010KT CAVOK

Säähavainnot ja -ennusteet yli 4000 lentoasemalta (METAR- ja TAF-raportit).

Käytössä olevat sääasemat on merkitty karttaan keltaisilla ja punaisilla pisteillä.

Aseta hiiri pisteen päälle nähdäksesi sääaseman nimen.

Klikkaa sitten nähdäksesi säähavainnot ja -ennusteet.

Kartan vaihtaminen: klikkaa mustalla rastilla varustettuja vihreitä pisteitä, niin voit zoomata sisään; viivalla varustettua vihreää pistettä, niin voit zoomata ulos tai vihreitä nuolia, niin pääset viereisille kartoille.


METAR-TAF: